createdAt,value
2023-03-10T00:00:53.240Z,9.00
2023-03-10T00:03:22.550Z,8.90
2023-03-10T00:05:50.860Z,9.00
2023-03-10T00:08:18.934Z,9.00
2023-03-10T00:10:48.021Z,9.00
2023-03-10T00:13:15.951Z,8.90
2023-03-10T00:15:43.965Z,8.90
2023-03-10T00:18:11.889Z,8.90
2023-03-10T00:20:41.201Z,9.00
2023-03-10T00:23:09.167Z,9.00
2023-03-10T00:25:37.124Z,9.00
2023-03-10T00:28:05.081Z,9.00
2023-03-10T00:30:35.239Z,8.90
2023-03-10T00:33:03.249Z,8.90
2023-03-10T00:35:31.326Z,9.00
2023-03-10T00:38:02.532Z,9.00
2023-03-10T00:40:30.512Z,8.90
2023-03-10T00:42:59.516Z,9.00
2023-03-10T00:45:27.455Z,9.10
2023-03-10T00:47:55.416Z,9.00
2023-03-10T00:50:23.383Z,9.00
2023-03-10T00:52:51.340Z,9.10
2023-03-10T00:55:20.652Z,9.10
2023-03-10T00:57:48.601Z,9.10
2023-03-10T01:00:18.041Z,9.10
2023-03-10T01:02:46.003Z,9.10
2023-03-10T01:05:15.695Z,9.10
2023-03-10T01:07:43.769Z,9.10
2023-03-10T01:10:12.857Z,9.10
2023-03-10T01:12:42.186Z,9.10
2023-03-10T01:15:12.087Z,9.10
2023-03-10T01:17:40.062Z,9.00
2023-03-10T01:20:09.944Z,9.10
2023-03-10T01:22:37.900Z,9.10
2023-03-10T01:25:06.819Z,9.10
2023-03-10T01:27:34.987Z,9.10
2023-03-10T01:30:04.606Z,9.10
2023-03-10T01:32:32.633Z,9.10
2023-03-10T01:35:00.685Z,9.10
2023-03-10T01:37:28.648Z,9.10
2023-03-10T01:39:56.593Z,9.10
2023-03-10T01:42:24.659Z,9.10
2023-03-10T01:45:09.961Z,9.20
2023-03-10T01:47:38.121Z,9.20
2023-03-10T01:50:09.150Z,9.20
2023-03-10T01:52:38.097Z,9.20
2023-03-10T01:55:11.328Z,9.20
2023-03-10T01:57:44.515Z,9.20
2023-03-10T02:00:16.217Z,9.20
2023-03-10T02:02:51.304Z,9.20
2023-03-10T02:05:20.270Z,9.20
2023-03-10T02:07:48.850Z,9.20
2023-03-10T02:10:17.599Z,9.20
2023-03-10T02:12:45.590Z,9.20
2023-03-10T02:15:15.122Z,9.30
2023-03-10T02:17:43.195Z,9.20
2023-03-10T02:20:23.520Z,9.20
2023-03-10T02:22:51.698Z,9.20
2023-03-10T02:25:30.645Z,9.20
2023-03-10T02:28:00.456Z,9.20
2023-03-10T02:30:32.641Z,9.20
2023-03-10T02:33:04.181Z,9.20
2023-03-10T02:35:32.246Z,9.20
2023-03-10T02:38:00.476Z,9.20
2023-03-10T02:40:34.727Z,9.20
2023-03-10T02:43:06.704Z,9.20
2023-03-10T02:45:38.795Z,9.20
2023-03-10T02:48:08.047Z,9.30
2023-03-10T02:50:40.448Z,9.20
2023-03-10T02:53:12.331Z,9.20
2023-03-10T02:55:40.804Z,9.20
2023-03-10T02:58:10.651Z,9.10
2023-03-10T03:00:39.691Z,9.20
2023-03-10T03:03:08.278Z,9.20
2023-03-10T03:05:36.744Z,9.20
2023-03-10T03:08:05.053Z,9.20
2023-03-10T03:10:33.656Z,9.20
2023-03-10T03:13:01.715Z,9.20
2023-03-10T03:15:31.811Z,9.20
2023-03-10T03:17:59.843Z,9.20
2023-03-10T03:20:28.788Z,9.20
2023-03-10T03:22:57.509Z,9.20
2023-03-10T03:25:28.539Z,9.20
2023-03-10T03:27:56.550Z,9.10
2023-03-10T03:30:27.388Z,9.10
2023-03-10T03:32:57.460Z,9.10
2023-03-10T03:35:27.526Z,9.10
2023-03-10T03:37:56.261Z,9.10
2023-03-10T03:40:25.712Z,9.10
2023-03-10T03:42:54.826Z,9.10
2023-03-10T03:45:24.489Z,9.10
2023-03-10T03:47:52.523Z,9.10
2023-03-10T03:50:23.106Z,9.10
2023-03-10T03:52:51.868Z,9.20
2023-03-10T03:55:20.232Z,9.10
2023-03-10T03:57:48.638Z,9.20
2023-03-10T04:00:19.183Z,9.20
2023-03-10T04:02:47.456Z,9.20
2023-03-10T04:05:15.915Z,9.20
2023-03-10T04:07:45.772Z,9.20
2023-03-10T04:10:15.741Z,9.30
2023-03-10T04:12:43.702Z,9.30
2023-03-10T04:15:12.596Z,9.30
2023-03-10T04:17:40.921Z,9.20
2023-03-10T04:20:11.631Z,9.20
2023-03-10T04:22:39.599Z,9.30
2023-03-10T04:25:10.302Z,9.30
2023-03-10T04:27:38.264Z,9.30
2023-03-10T04:30:07.290Z,9.30
2023-03-10T04:32:35.306Z,9.30
2023-03-10T04:35:03.282Z,9.30
2023-03-10T04:37:31.270Z,9.20
2023-03-10T04:39:59.325Z,9.20
2023-03-10T04:42:28.626Z,9.20
2023-03-10T04:44:56.583Z,9.20
2023-03-10T04:47:24.524Z,9.30
2023-03-10T04:49:52.677Z,9.20
2023-03-10T04:52:20.611Z,9.10
2023-03-10T04:54:48.565Z,9.20
2023-03-10T04:57:16.812Z,9.10
2023-03-10T04:59:46.126Z,9.20
2023-03-10T05:02:14.069Z,9.10
2023-03-10T05:04:42.127Z,9.10
2023-03-10T05:07:10.177Z,9.10
2023-03-10T05:09:39.010Z,9.20
2023-03-10T05:12:07.848Z,9.10
2023-03-10T05:14:35.818Z,9.20
2023-03-10T05:17:05.359Z,9.20
2023-03-10T05:19:35.149Z,9.10
2023-03-10T05:22:03.212Z,9.10
2023-03-10T05:24:31.552Z,9.10
2023-03-10T05:27:01.402Z,9.10
2023-03-10T05:29:29.671Z,9.20
2023-03-10T05:31:57.618Z,9.10
2023-03-10T05:34:26.980Z,9.10
2023-03-10T05:36:56.383Z,9.10
2023-03-10T05:39:24.478Z,9.10
2023-03-10T05:41:52.422Z,9.10
2023-03-10T05:44:20.374Z,9.10
2023-03-10T05:46:48.340Z,9.00
2023-03-10T05:49:16.321Z,9.00
2023-03-10T05:51:45.639Z,9.10
2023-03-10T05:54:13.694Z,9.10
2023-03-10T05:56:41.758Z,9.10
2023-03-10T05:59:09.692Z,9.10
2023-03-10T06:01:38.517Z,9.10
2023-03-10T06:04:06.598Z,9.00
2023-03-10T06:06:34.916Z,9.10
2023-03-10T06:09:04.686Z,9.10
2023-03-10T06:11:33.407Z,9.10
2023-03-10T06:14:01.546Z,9.10
2023-03-10T06:16:29.608Z,9.10
2023-03-10T06:18:58.586Z,9.10
2023-03-10T06:21:28.312Z,9.10
2023-03-10T06:23:56.273Z,9.10
2023-03-10T06:26:25.632Z,9.20
2023-03-10T06:28:53.569Z,9.10
2023-03-10T06:31:24.408Z,9.10
2023-03-10T06:33:52.550Z,9.20
2023-03-10T06:36:21.761Z,9.20
2023-03-10T06:38:50.362Z,9.20
2023-03-10T06:41:18.838Z,9.20
2023-03-10T06:43:48.644Z,9.20
2023-03-10T06:46:17.478Z,9.20
2023-03-10T06:48:45.818Z,9.20
2023-03-10T06:51:16.618Z,9.20
2023-03-10T06:53:44.704Z,9.20
2023-03-10T06:56:15.154Z,9.20
2023-03-10T06:58:43.818Z,9.20
2023-03-10T07:01:22.841Z,9.20
2023-03-10T07:03:50.823Z,9.20
2023-03-10T07:06:18.852Z,9.30
2023-03-10T07:08:47.028Z,9.30
2023-03-10T07:11:16.406Z,9.30
2023-03-10T07:13:44.372Z,9.40
2023-03-10T07:16:12.399Z,9.40
2023-03-10T07:18:41.936Z,9.40
2023-03-10T07:21:10.277Z,9.40
2023-03-10T07:23:38.512Z,9.30
2023-03-10T07:26:08.966Z,9.30
2023-03-10T07:28:37.825Z,9.30
2023-03-10T07:31:07.598Z,9.20
2023-03-10T07:33:35.844Z,9.20
2023-03-10T07:36:08.068Z,9.20
2023-03-10T07:38:36.587Z,9.20
2023-03-10T07:41:08.341Z,9.30
2023-03-10T07:43:36.668Z,9.30
2023-03-10T07:46:06.970Z,9.30
2023-03-10T07:48:35.307Z,9.40
2023-03-10T07:51:04.141Z,9.40
2023-03-10T07:53:35.068Z,9.40
2023-03-10T07:56:05.905Z,9.40
2023-03-10T07:58:34.769Z,9.40
2023-03-10T08:01:03.840Z,9.30
2023-03-10T08:03:32.121Z,9.40
2023-03-10T08:06:00.114Z,9.50
2023-03-10T08:08:28.255Z,9.50
2023-03-10T08:11:05.055Z,9.60
2023-03-10T08:13:33.286Z,9.60
2023-03-10T08:16:02.217Z,9.60
2023-03-10T08:18:31.600Z,9.60
2023-03-10T08:20:59.930Z,9.70
2023-03-10T08:23:27.903Z,9.70
2023-03-10T08:25:55.887Z,9.80
2023-03-10T08:28:25.481Z,9.90
2023-03-10T08:31:04.378Z,10.00
2023-03-10T08:33:33.710Z,10.20
2023-03-10T08:36:10.138Z,10.30
2023-03-10T08:38:38.589Z,10.30
2023-03-10T08:41:14.628Z,10.30
2023-03-10T08:43:44.686Z,10.40
2023-03-10T08:46:13.848Z,10.50
2023-03-10T08:48:42.958Z,10.60
2023-03-10T08:51:14.428Z,10.70
2023-03-10T08:53:46.588Z,10.80
2023-03-10T08:56:15.083Z,10.70
2023-03-10T08:58:45.112Z,10.80
2023-03-10T09:01:14.413Z,10.80
2023-03-10T09:03:43.556Z,10.90
2023-03-10T09:06:11.720Z,10.90
2023-03-10T09:08:41.203Z,10.80
2023-03-10T09:11:10.005Z,10.70
2023-03-10T09:13:38.082Z,10.70
2023-03-10T09:16:11.160Z,10.60
2023-03-10T09:18:39.513Z,10.70
2023-03-10T09:21:07.559Z,10.70
2023-03-10T09:23:35.714Z,10.70
2023-03-10T09:26:03.813Z,10.80
2023-03-10T09:28:31.849Z,10.90
2023-03-10T09:31:00.082Z,11.00
2023-03-10T09:33:29.945Z,11.00
2023-03-10T09:36:06.297Z,11.10
2023-03-10T09:38:35.678Z,11.10
2023-03-10T09:41:16.412Z,11.10
2023-03-10T09:43:50.877Z,11.30
2023-03-10T09:46:24.686Z,11.20
2023-03-10T09:49:03.734Z,11.20
2023-03-10T09:51:31.732Z,11.30
2023-03-10T09:54:17.582Z,11.40
2023-03-10T09:56:45.566Z,11.60
2023-03-10T09:59:17.935Z,11.70
2023-03-10T10:01:50.219Z,11.80
2023-03-10T10:04:23.633Z,11.80
2023-03-10T10:06:52.064Z,11.90
2023-03-10T10:09:28.456Z,11.80
2023-03-10T10:11:57.055Z,11.60
2023-03-10T10:14:30.533Z,11.40
2023-03-10T10:17:09.220Z,11.20
2023-03-10T10:19:41.021Z,11.30
2023-03-10T10:22:16.474Z,11.30
2023-03-10T10:25:00.239Z,11.40
2023-03-10T10:27:28.228Z,11.70
2023-03-10T10:29:56.175Z,11.90
2023-03-10T10:32:24.197Z,12.10
2023-03-10T10:35:12.981Z,12.10
2023-03-10T10:37:43.051Z,12.20
2023-03-10T10:40:24.486Z,12.40
2023-03-10T10:42:53.999Z,12.50
2023-03-10T10:45:28.497Z,12.60
2023-03-10T10:47:56.787Z,12.60
2023-03-10T10:50:27.958Z,12.80
2023-03-10T10:53:19.894Z,12.80
2023-03-10T10:55:59.218Z,12.80
2023-03-10T10:58:30.824Z,12.80
2023-03-10T11:01:00.978Z,12.90
2023-03-10T11:03:33.194Z,12.90
2023-03-10T11:06:13.276Z,12.90
2023-03-10T11:08:43.073Z,12.90
2023-03-10T11:11:25.264Z,12.90
2023-03-10T11:14:07.919Z,12.90
2023-03-10T11:16:47.208Z,12.90
2023-03-10T11:19:24.297Z,13.00
2023-03-10T11:21:57.865Z,13.10
2023-03-10T11:24:32.275Z,13.00
2023-03-10T11:27:08.122Z,12.70
2023-03-10T11:29:52.413Z,12.80
2023-03-10T11:32:31.088Z,12.70
2023-03-10T11:34:59.058Z,12.80
2023-03-10T11:37:36.499Z,12.90
2023-03-10T11:40:19.649Z,12.90
2023-03-10T11:42:53.874Z,12.80
2023-03-10T11:45:28.581Z,12.80
2023-03-10T11:48:07.112Z,12.90
2023-03-10T11:50:43.463Z,12.90
2023-03-10T11:53:17.703Z,12.90
2023-03-10T11:55:46.471Z,12.90
2023-03-10T11:58:24.453Z,13.00
2023-03-10T12:00:54.124Z,13.00
2023-03-10T12:03:35.861Z,12.90
2023-03-10T12:06:07.504Z,12.90
2023-03-10T12:08:37.583Z,12.90
2023-03-10T12:11:12.386Z,12.90
2023-03-10T12:13:45.821Z,12.90
2023-03-10T12:16:19.969Z,13.00
2023-03-10T12:18:48.282Z,13.00
2023-03-10T12:21:21.597Z,13.20
2023-03-10T12:23:52.740Z,13.20
2023-03-10T12:26:59.428Z,13.20
2023-03-10T12:29:39.262Z,13.20
2023-03-10T12:32:40.664Z,13.00
2023-03-10T12:35:43.272Z,13.30
2023-03-10T12:38:31.754Z,13.40
2023-03-10T12:41:01.895Z,13.30
2023-03-10T12:44:00.647Z,13.20
2023-03-10T12:46:40.837Z,13.30
2023-03-10T12:49:32.579Z,13.10
2023-03-10T12:52:15.161Z,13.10
2023-03-10T12:54:49.666Z,13.30
2023-03-10T12:57:23.710Z,13.20
2023-03-10T13:00:00.192Z,13.30
2023-03-10T13:02:34.349Z,13.30
2023-03-10T13:05:06.746Z,13.30
2023-03-10T13:07:36.633Z,13.40
2023-03-10T13:10:05.158Z,13.60
2023-03-10T13:12:43.669Z,13.80
2023-03-10T13:15:24.803Z,14.10
2023-03-10T13:17:55.204Z,13.90
2023-03-10T13:20:23.995Z,13.80
2023-03-10T13:22:55.706Z,13.70
2023-03-10T13:25:24.105Z,13.60
2023-03-10T13:27:55.352Z,13.70
2023-03-10T13:30:26.537Z,13.70
2023-03-10T13:32:56.536Z,13.70
2023-03-10T13:35:27.272Z,13.90
2023-03-10T13:38:06.280Z,13.90
2023-03-10T13:40:34.400Z,13.90
2023-03-10T13:43:05.839Z,13.90
2023-03-10T13:45:34.928Z,13.70
2023-03-10T13:48:06.135Z,13.60
2023-03-10T13:50:34.203Z,13.40
2023-03-10T13:53:04.008Z,13.20
2023-03-10T13:55:41.487Z,12.90
2023-03-10T13:58:13.665Z,12.70
2023-03-10T14:00:47.228Z,12.60
2023-03-10T14:03:15.572Z,12.60
2023-03-10T14:05:45.856Z,12.50
2023-03-10T14:08:24.225Z,12.30
2023-03-10T14:10:52.727Z,12.30
2023-03-10T14:13:45.251Z,12.40
2023-03-10T14:16:13.617Z,12.50
2023-03-10T14:18:43.653Z,12.60
2023-03-10T14:21:30.740Z,12.60
2023-03-10T14:24:04.132Z,12.60
2023-03-10T14:26:32.613Z,12.50
2023-03-10T14:29:03.568Z,12.40
2023-03-10T14:31:31.567Z,12.20
2023-03-10T14:33:59.482Z,11.90
2023-03-10T14:36:27.973Z,11.90
2023-03-10T14:38:55.978Z,11.70
2023-03-10T14:41:26.123Z,11.60
2023-03-10T14:43:54.168Z,11.60
2023-03-10T14:46:23.639Z,11.50
2023-03-10T14:48:51.778Z,11.40
2023-03-10T14:51:34.593Z,11.50
2023-03-10T14:54:03.859Z,11.50
2023-03-10T14:56:32.676Z,11.40
2023-03-10T14:59:02.480Z,11.40
2023-03-10T15:01:32.097Z,11.40
2023-03-10T15:04:00.157Z,11.40
2023-03-10T15:06:28.281Z,11.40
2023-03-10T15:08:56.230Z,11.40
2023-03-10T15:11:36.487Z,11.40
2023-03-10T15:14:05.806Z,11.30
2023-03-10T15:16:35.110Z,11.20
2023-03-10T15:19:03.052Z,11.20
2023-03-10T15:21:31.041Z,11.20
2023-03-10T15:23:59.001Z,11.10
2023-03-10T15:26:26.976Z,10.90
2023-03-10T15:28:54.948Z,10.80
2023-03-10T15:31:22.995Z,10.60
2023-03-10T15:33:52.329Z,10.50
2023-03-10T15:36:20.358Z,10.50
2023-03-10T15:38:48.338Z,10.50
2023-03-10T15:41:17.260Z,10.40
2023-03-10T15:43:45.218Z,10.40
2023-03-10T15:46:13.436Z,10.30
2023-03-10T15:48:41.439Z,10.30
2023-03-10T15:51:14.258Z,10.30
2023-03-10T15:53:42.232Z,10.30
2023-03-10T15:56:11.621Z,10.20
2023-03-10T15:58:39.823Z,10.20
2023-03-10T16:01:08.745Z,10.20
2023-03-10T16:03:37.095Z,10.20
2023-03-10T16:06:05.655Z,10.10
2023-03-10T16:08:37.416Z,10.10
2023-03-10T16:11:07.396Z,10.10
2023-03-10T16:13:35.331Z,10.00
2023-03-10T16:16:06.870Z,10.00
2023-03-10T16:18:34.980Z,9.90
2023-03-10T16:21:04.128Z,9.90
2023-03-10T16:23:34.690Z,10.10
2023-03-10T16:26:11.533Z,10.10
2023-03-10T16:28:41.238Z,10.10
2023-03-10T16:31:10.013Z,10.10
2023-03-10T16:33:38.041Z,10.00
2023-03-10T16:36:08.475Z,10.00
2023-03-10T16:38:38.184Z,9.80
2023-03-10T16:41:06.493Z,9.70
2023-03-10T16:43:34.699Z,9.80
2023-03-10T16:46:08.906Z,9.70
2023-03-10T16:48:41.954Z,9.60
2023-03-10T16:51:22.780Z,9.60
2023-03-10T16:53:52.950Z,9.50
2023-03-10T16:56:21.542Z,9.40
2023-03-10T16:58:49.539Z,9.50
2023-03-10T17:01:17.637Z,9.50
2023-03-10T17:03:45.675Z,9.50
2023-03-10T17:06:15.269Z,9.50
2023-03-10T17:08:43.354Z,9.30
2023-03-10T17:11:19.917Z,9.40
2023-03-10T17:13:49.656Z,9.30
2023-03-10T17:16:19.372Z,9.20
2023-03-10T17:18:47.662Z,9.20
2023-03-10T17:21:17.939Z,9.20
2023-03-10T17:23:46.837Z,9.10
2023-03-10T17:26:17.612Z,9.00
2023-03-10T17:28:48.031Z,9.10
2023-03-10T17:31:20.419Z,8.90
2023-03-10T17:33:48.546Z,8.80
2023-03-10T17:36:17.972Z,8.80
2023-03-10T17:38:46.441Z,8.60
2023-03-10T17:41:17.072Z,8.70
2023-03-10T17:43:45.048Z,8.70
2023-03-10T17:46:15.659Z,8.50
2023-03-10T17:48:43.687Z,8.40
2023-03-10T17:51:15.225Z,8.30
2023-03-10T17:53:43.580Z,8.20
2023-03-10T17:56:12.130Z,8.10
2023-03-10T17:58:41.802Z,8.10
2023-03-10T18:01:10.972Z,8.00
2023-03-10T18:03:38.983Z,8.00
2023-03-10T18:06:13.655Z,8.00
2023-03-10T18:08:41.908Z,8.00
2023-03-10T18:11:09.979Z,7.90
2023-03-10T18:13:38.590Z,8.00
2023-03-10T18:16:11.664Z,8.00
2023-03-10T18:18:40.028Z,7.90
2023-03-10T18:21:10.008Z,7.90
2023-03-10T18:23:38.001Z,7.90
2023-03-10T18:26:07.864Z,7.90
2023-03-10T18:28:36.047Z,7.80
2023-03-10T18:31:07.118Z,7.80
2023-03-10T18:33:36.594Z,7.70
2023-03-10T18:36:06.456Z,7.80
2023-03-10T18:38:35.020Z,7.70
2023-03-10T18:41:04.580Z,7.70
2023-03-10T18:43:34.204Z,7.60
2023-03-10T18:46:02.979Z,7.60
2023-03-10T18:48:31.396Z,7.50
2023-03-10T18:51:01.172Z,7.50
2023-03-10T18:53:30.075Z,7.40
2023-03-10T18:56:00.004Z,7.40
2023-03-10T18:58:28.156Z,7.30
2023-03-10T19:00:56.327Z,7.20
2023-03-10T19:03:24.350Z,7.10
2023-03-10T19:05:55.762Z,6.80
2023-03-10T19:08:27.026Z,6.60
2023-03-10T19:10:56.948Z,6.60
2023-03-10T19:13:25.686Z,6.50
2023-03-10T19:15:53.891Z,6.20
2023-03-10T19:18:22.618Z,6.10
2023-03-10T19:20:50.892Z,5.90
2023-03-10T19:23:19.488Z,5.70
2023-03-10T19:25:48.861Z,5.60
2023-03-10T19:28:16.824Z,5.30
2023-03-10T19:30:45.104Z,5.30
2023-03-10T19:33:13.219Z,5.30
2023-03-10T19:35:41.316Z,5.20
2023-03-10T19:38:10.218Z,5.20
2023-03-10T19:40:38.850Z,5.00
2023-03-10T19:43:08.299Z,4.90
2023-03-10T19:45:36.779Z,4.90
2023-03-10T19:48:05.038Z,4.90
2023-03-10T19:50:32.995Z,4.80
2023-03-10T19:53:01.000Z,4.60
2023-03-10T19:55:29.615Z,4.50
2023-03-10T19:57:57.852Z,4.30
2023-03-10T20:00:31.404Z,4.30
2023-03-10T20:02:59.748Z,4.10
2023-03-10T20:05:27.805Z,4.20
2023-03-10T20:07:55.936Z,4.20
2023-03-10T20:10:23.872Z,4.20
2023-03-10T20:12:52.188Z,4.10
2023-03-10T20:15:20.356Z,4.00
2023-03-10T20:17:49.954Z,4.10
2023-03-10T20:20:20.212Z,4.00
2023-03-10T20:22:50.421Z,3.90
2023-03-10T20:25:20.360Z,3.90
2023-03-10T20:27:49.436Z,3.90
2023-03-10T20:30:20.293Z,3.80
2023-03-10T20:32:49.680Z,3.80
2023-03-10T20:35:18.284Z,3.70
2023-03-10T20:37:46.380Z,3.70
2023-03-10T20:40:16.462Z,3.70
2023-03-10T20:42:44.575Z,3.70
2023-03-10T20:45:13.002Z,3.70
2023-03-10T20:47:41.431Z,3.60
2023-03-10T20:50:15.774Z,3.60
2023-03-10T20:52:45.109Z,3.60
2023-03-10T20:55:17.603Z,3.50
2023-03-10T20:57:45.557Z,3.60
2023-03-10T21:00:16.461Z,3.50
2023-03-10T21:02:44.622Z,3.40
2023-03-10T21:05:14.649Z,3.40
2023-03-10T21:07:42.929Z,3.30
2023-03-10T21:10:13.441Z,3.30
2023-03-10T21:12:42.998Z,3.30
2023-03-10T21:15:13.630Z,3.30
2023-03-10T21:17:41.597Z,3.30
2023-03-10T21:20:11.308Z,3.20
2023-03-10T21:22:41.368Z,3.20
2023-03-10T21:25:13.697Z,3.20
2023-03-10T21:27:41.715Z,3.10
2023-03-10T21:30:13.430Z,3.20
2023-03-10T21:32:41.419Z,3.20
2023-03-10T21:35:12.612Z,3.10
2023-03-10T21:37:44.098Z,3.10
2023-03-10T21:40:15.065Z,3.00
2023-03-10T21:42:43.287Z,3.10
2023-03-10T21:45:15.276Z,3.10
2023-03-10T21:47:43.279Z,3.10
2023-03-10T21:50:13.597Z,3.10
2023-03-10T21:52:43.116Z,3.00
2023-03-10T21:55:18.385Z,3.00
2023-03-10T21:57:46.628Z,2.90
2023-03-10T22:00:15.774Z,2.80
2023-03-10T22:02:43.879Z,2.80
2023-03-10T22:05:14.590Z,2.80
2023-03-10T22:07:44.024Z,2.70
2023-03-10T22:10:14.372Z,2.80
2023-03-10T22:12:42.616Z,2.70
2023-03-10T22:15:15.341Z,2.80
2023-03-10T22:17:43.291Z,2.70
2023-03-10T22:20:16.246Z,2.70
2023-03-10T22:22:45.788Z,2.70
2023-03-10T22:25:14.576Z,2.80
2023-03-10T22:27:42.959Z,2.80
2023-03-10T22:30:14.055Z,2.80
2023-03-10T22:32:42.417Z,2.80
2023-03-10T22:35:10.711Z,2.80
2023-03-10T22:37:39.027Z,2.80
2023-03-10T22:40:11.039Z,2.80
2023-03-10T22:42:39.451Z,2.60
2023-03-10T22:45:09.287Z,2.60
2023-03-10T22:47:37.226Z,2.70
2023-03-10T22:50:05.829Z,2.70
2023-03-10T22:52:33.933Z,2.60
2023-03-10T22:55:01.889Z,2.70
2023-03-10T22:57:31.225Z,2.60
2023-03-10T22:59:59.190Z,2.60
2023-03-10T23:02:27.213Z,2.70
2023-03-10T23:04:55.217Z,2.60
2023-03-10T23:07:23.195Z,2.70
2023-03-10T23:09:51.228Z,2.70
2023-03-10T23:12:19.263Z,2.70
2023-03-10T23:14:48.561Z,2.70
2023-03-10T23:17:16.597Z,2.70
2023-03-10T23:19:44.547Z,2.70
2023-03-10T23:22:12.501Z,2.70
2023-03-10T23:24:40.418Z,2.60
2023-03-10T23:27:08.430Z,2.50
2023-03-10T23:29:36.384Z,2.50
2023-03-10T23:32:06.210Z,2.60
2023-03-10T23:34:34.207Z,2.60
2023-03-10T23:37:02.151Z,2.60
2023-03-10T23:39:30.108Z,2.60
2023-03-10T23:41:58.069Z,2.60
2023-03-10T23:44:26.051Z,2.60
2023-03-10T23:46:54.838Z,2.60
2023-03-10T23:49:24.181Z,2.60
2023-03-10T23:51:53.310Z,2.60
2023-03-10T23:54:22.442Z,2.60
2023-03-10T23:56:51.043Z,2.70
2023-03-10T23:59:19.077Z,2.70
